Time;durP1;ratioP1;P1;durP2;ratioP2;P2;SDS_P1;SDS_P2;PMS_P1;PMS_P2;Temp;Humidity;BMP_temperature;BMP_pressure;BME280_temperature;BME280_humidity;BME280_pressure;Samples;Min_cycle;Max_cycle;Signal;HPM_P1;HPM_P2
2022/08/04 00:06:01;;;;;;;15.13;2.65;;;23.70;99.90;;;;;;12418705;28;20501;-85
2022/08/04 00:12:07;;;;;;;14.88;2.58;;;23.60;99.90;;;;;;12400446;28;20176;-85
2022/08/04 00:18:10;;;;;;;15.50;3.08;;;23.70;99.90;;;;;;12413477;28;20390;-85
2022/08/04 00:24:13;;;;;;;;;;;23.60;99.90;;;;;;12408911;28;20050;-86
2022/08/04 00:30:15;;;;;;;14.63;3.10;;;23.40;99.90;;;;;;12422549;28;19971;-85
2022/08/04 00:36:17;;;;;;;9.18;2.50;;;23.30;99.90;;;;;;12424543;28;20184;-85
2022/08/04 00:42:55;;;;;;;9.48;2.78;;;23.10;99.90;;;;;;12416440;28;20072;-86
2022/08/04 00:49:09;;;;;;;11.45;2.80;;;23.10;99.90;;;;;;12425839;28;20038;-87
2022/08/04 00:55:40;;;;;;;11.20;3.35;;;23.10;99.90;;;;;;12410591;28;20084;-86
2022/08/04 01:02:01;;;;;;;12.88;3.25;;;23.20;99.90;;;;;;12424452;28;20558;-87
2022/08/04 01:08:14;;;;;;;13.48;3.10;;;23.10;99.90;;;;;;12420688;28;20054;-85
2022/08/04 01:14:22;;;;;;;9.88;2.83;;;23.10;99.90;;;;;;12404858;28;20047;-86
2022/08/04 01:20:43;;;;;;;9.90;2.92;;;23.10;99.90;;;;;;12406017;28;20066;-86
2022/08/04 01:27:07;;;;;;;17.00;2.72;;;23.00;99.90;;;;;;12404303;28;20337;-86
2022/08/04 01:33:13;;;;;;;8.30;2.58;;;23.10;99.90;;;;;;12399924;28;20076;-86
2022/08/04 01:45:36;;;;;;;11.18;2.60;;;23.00;99.90;;;;;;12418903;28;20038;-85
2022/08/04 01:51:39;;;;;;;7.20;2.90;;;22.90;99.90;;;;;;12421294;28;20144;-86
2022/08/04 01:57:46;;;;;;;10.85;2.53;;;22.90;99.90;;;;;;12414712;28;20097;-86
2022/08/04 02:03:48;;;;;;;9.80;2.70;;;22.80;99.90;;;;;;12407248;28;20125;-86
2022/08/04 02:10:46;;;;;;;11.95;2.47;;;22.70;99.90;;;;;;12402300;28;20050;-86
2022/08/04 02:16:51;;;;;;;9.20;2.20;;;22.70;99.90;;;;;;12420538;28;20061;-85
2022/08/04 02:22:59;;;;;;;11.88;2.50;;;22.60;99.90;;;;;;12405115;28;20049;-86
2022/08/04 02:29:18;;;;;;;8.50;2.40;;;22.60;99.90;;;;;;12416147;28;20149;-85
2022/08/04 02:35:26;;;;;;;10.25;2.55;;;22.40;99.90;;;;;;12396701;28;20189;-86
2022/08/04 02:41:30;;;;;;;10.93;2.33;;;22.30;99.90;;;;;;12397315;28;20095;-85
2022/08/04 02:47:32;;;;;;;;;;;22.30;99.90;;;;;;12400176;28;20058;-86
2022/08/04 02:53:57;;;;;;;15.07;2.95;;;22.40;99.90;;;;;;12406765;28;19929;-86
2022/08/04 03:00:12;;;;;;;8.90;2.22;;;22.30;99.90;;;;;;12425400;28;20093;-85
2022/08/04 03:06:34;;;;;;;11.95;2.40;;;22.50;99.90;;;;;;12426992;28;20046;-86
2022/08/04 03:13:11;;;;;;;11.90;2.15;;;22.40;99.90;;;;;;12409137;28;20045;-86
2022/08/04 03:19:50;;;;;;;12.98;2.75;;;22.40;99.90;;;;;;12394318;28;20062;-85
2022/08/04 03:26:26;;;;;;;9.48;2.42;;;22.50;99.90;;;;;;12430997;28;20076;-85
2022/08/04 03:32:34;;;;;;;7.00;2.47;;;22.30;99.90;;;;;;12394133;28;20137;-85
2022/08/04 03:38:44;;;;;;;11.35;2.33;;;22.20;99.90;;;;;;12408938;28;20046;-84
2022/08/04 03:45:35;;;;;;;10.45;2.42;;;22.10;99.90;;;;;;12402019;28;20615;-85
2022/08/04 03:58:22;;;;;;;9.38;2.28;;;22.00;99.90;;;;;;12418886;28;20136;-85
2022/08/04 04:04:40;;;;;;;11.15;3.00;;;22.00;99.90;;;;;;12395302;28;20054;-85
2022/08/04 04:10:47;;;;;;;11.73;2.25;;;21.80;99.90;;;;;;12417665;28;20064;-85
2022/08/04 04:17:19;;;;;;;7.60;2.55;;;22.00;99.90;;;;;;12418638;28;20622;-85
2022/08/04 04:23:26;;;;;;;10.88;2.38;;;22.00;99.90;;;;;;12404917;28;20302;-88
2022/08/04 04:29:55;;;;;;;9.25;2.65;;;21.90;99.90;;;;;;12420108;28;20426;-85
2022/08/04 04:36:15;;;;;;;7.00;2.22;;;21.90;99.90;;;;;;12403803;28;20065;-85
2022/08/04 04:42:37;;;;;;;7.80;2.50;;;21.80;99.90;;;;;;12418632;28;20412;-85
2022/08/04 04:48:49;;;;;;;6.82;2.50;;;21.70;99.90;;;;;;12412191;28;20042;-85
2022/08/04 04:55:25;;;;;;;6.55;2.97;;;21.70;99.90;;;;;;12411729;28;20046;-85
2022/08/04 05:01:51;;;;;;;6.50;2.42;;;21.80;99.90;;;;;;12405040;28;20181;-86
2022/08/04 05:08:11;;;;;;;10.02;2.60;;;21.80;99.90;;;;;;12406939;28;20099;-85
2022/08/04 05:14:40;;;;;;;10.43;2.92;;;21.90;99.90;;;;;;12419256;28;20058;-86
2022/08/04 05:20:47;;;;;;;7.93;3.10;;;22.20;99.90;;;;;;12401744;28;20046;-86
2022/08/04 05:26:57;;;;;;;6.80;2.63;;;22.30;99.90;;;;;;12417646;28;20126;-85
2022/08/04 05:33:03;;;;;;;7.20;3.00;;;22.30;99.90;;;;;;12438577;28;20053;-85
2022/08/04 05:39:08;;;;;;;8.05;2.58;;;22.20;99.90;;;;;;12405673;28;20433;-85
2022/08/04 05:45:12;;;;;;;9.00;2.80;;;22.20;99.90;;;;;;12410504;28;20111;-86
2022/08/04 05:51:14;;;;;;;14.13;2.87;;;22.30;99.90;;;;;;12398116;28;20057;-85
2022/08/04 05:57:17;;;;;;;7.57;2.87;;;22.30;99.90;;;;;;12391200;28;20304;-85
2022/08/04 06:03:20;;;;;;;6.88;2.45;;;22.40;99.90;;;;;;12404208;28;20046;-85
2022/08/04 06:09:22;;;;;;;6.07;2.28;;;22.40;99.90;;;;;;12405072;28;20077;-85
2022/08/04 06:15:26;;;;;;;7.38;2.70;;;22.40;99.90;;;;;;12419020;28;20051;-85
2022/08/04 06:21:36;;;;;;;8.77;2.75;;;22.50;99.90;;;;;;12405212;28;20057;-86
2022/08/04 06:27:39;;;;;;;7.90;2.53;;;22.60;99.90;;;;;;12396834;28;20058;-85
2022/08/04 06:33:41;;;;;;;11.25;2.78;;;22.80;99.90;;;;;;12393588;28;20049;-86
2022/08/04 06:39:56;;;;;;;7.80;2.40;;;22.80;99.90;;;;;;12414713;28;20034;-86
2022/08/04 06:46:01;;;;;;;11.70;2.50;;;23.00;99.90;;;;;;12406492;28;20077;-86
2022/08/04 06:52:04;;;;;;;8.32;2.45;;;23.00;99.90;;;;;;12400488;28;20144;-86
2022/08/04 06:58:07;;;;;;;8.93;2.47;;;23.10;99.90;;;;;;12399045;28;20058;-86
2022/08/04 07:04:10;;;;;;;11.02;2.42;;;23.20;99.90;;;;;;12399794;28;20120;-86
2022/08/04 07:10:14;;;;;;;6.60;2.42;;;23.30;99.90;;;;;;12401880;28;20095;-86
2022/08/04 07:16:23;;;;;;;6.50;2.35;;;23.30;99.90;;;;;;12401393;28;20492;-86
2022/08/04 07:22:33;;;;;;;9.15;2.20;;;23.40;99.90;;;;;;12402030;28;20046;-86
2022/08/04 07:28:35;;;;;;;9.55;2.70;;;23.60;99.90;;;;;;12395687;28;20050;-86
2022/08/04 07:34:37;;;;;;;6.63;2.20;;;23.90;99.90;;;;;;12412989;28;20095;-86
2022/08/04 07:40:40;;;;;;;6.82;2.25;;;24.10;99.90;;;;;;12399844;28;20054;-86
2022/08/04 07:46:45;;;;;;;12.17;2.80;;;24.30;99.90;;;;;;12407212;28;20050;-86
2022/08/04 07:52:47;;;;;;;5.07;2.00;;;24.40;99.90;;;;;;12419166;28;20047;-86
2022/08/04 07:59:09;;;;;;;5.45;2.00;;;24.60;99.90;;;;;;12413598;28;20054;-85
2022/08/04 08:05:15;;;;;;;5.93;1.95;;;24.80;99.90;;;;;;12424711;28;20489;-86
2022/08/04 08:11:17;;;;;;;5.22;1.75;;;25.00;99.90;;;;;;12412695;28;20056;-86
2022/08/04 08:17:19;;;;;;;3.37;1.63;;;25.60;99.90;;;;;;12421478;28;20128;-84
2022/08/04 08:23:22;;;;;;;3.07;1.47;;;26.70;99.90;;;;;;12420335;28;20052;-85
2022/08/04 08:29:26;;;;;;;3.00;1.50;;;26.90;99.90;;;;;;12406208;28;20069;-85
2022/08/04 08:35:31;;;;;;;;;;;27.50;99.90;;;;;;12403776;28;20624;-84
2022/08/04 08:42:07;;;;;;;5.72;2.08;;;27.70;99.90;;;;;;12416847;28;19926;-85
2022/08/04 08:48:54;;;;;;;6.05;1.73;;;28.20;99.90;;;;;;12418137;28;20116;-86
2022/08/04 08:55:14;;;;;;;5.97;2.05;;;28.30;99.90;;;;;;12401993;28;20096;-85
2022/08/04 09:01:35;;;;;;;7.63;1.92;;;28.60;99.90;;;;;;12420248;28;20095;-86
2022/08/04 09:07:46;;;;;;;4.38;1.95;;;29.20;99.90;;;;;;12420672;28;20099;-86
2022/08/04 09:14:15;;;;;;;5.57;2.13;;;29.70;99.90;;;;;;12421939;28;20045;-85
2022/08/04 09:20:48;;;;;;;4.68;1.73;;;29.90;99.90;;;;;;12404893;28;20133;-85
2022/08/04 09:27:15;;;;;;;3.88;1.92;;;29.90;99.90;;;;;;12409327;28;20537;-85
2022/08/04 09:33:21;;;;;;;6.90;1.70;;;30.00;99.90;;;;;;12405015;28;20413;-84
2022/08/04 09:39:59;;;;;;;3.72;2.00;;;30.30;99.90;;;;;;12403422;28;20050;-86
2022/08/04 09:46:37;;;;;;;4.03;1.70;;;30.60;99.90;;;;;;12415595;28;20081;-86
2022/08/04 09:53:11;;;;;;;5.43;1.95;;;30.80;99.90;;;;;;12361542;28;20521;-86
2022/08/04 09:59:38;;;;;;;6.97;2.17;;;30.90;99.90;;;;;;12418949;28;20066;-86
2022/08/04 10:06:00;;;;;;;4.97;1.80;;;31.20;99.90;;;;;;12392425;28;20564;-87
2022/08/04 10:12:40;;;;;;;3.10;1.90;;;30.90;99.90;;;;;;12426264;28;20115;-86
2022/08/04 10:19:14;;;;;;;5.75;1.73;;;31.30;99.90;;;;;;12401434;28;20058;-86
2022/08/04 10:25:23;;;;;;;4.57;1.88;;;31.50;99.90;;;;;;12389023;28;20395;-87
2022/08/04 10:32:27;;;;;;;2.97;1.98;;;31.70;99.90;;;;;;12392772;28;20433;-87
2022/08/04 10:38:39;;;;;;;4.35;1.70;;;32.00;99.90;;;;;;12355898;28;20119;-85
2022/08/04 10:44:53;;;;;;;4.63;1.65;;;32.10;99.90;;;;;;12409524;28;20390;-86
2022/08/04 10:51:42;;;;;;;2.53;1.50;;;32.40;99.90;;;;;;12412538;28;20125;-86
2022/08/04 10:58:12;;;;;;;10.27;1.67;;;32.70;99.90;;;;;;12396191;28;20053;-86
2022/08/04 11:04:47;;;;;;;6.45;1.35;;;32.70;99.90;;;;;;12388036;28;20054;-86
2022/08/04 11:11:09;;;;;;;3.33;1.40;;;32.70;99.90;;;;;;12395996;28;20050;-86
2022/08/04 11:17:16;;;;;;;;;;;32.40;99.90;;;;;;12441746;28;20112;-87
2022/08/04 11:23:27;;;;;;;6.45;1.38;;;32.50;99.90;;;;;;12422016;28;20472;-87
2022/08/04 11:29:55;;;;;;;3.00;1.27;;;32.60;99.90;;;;;;12400330;28;20058;-86
2022/08/04 11:36:05;;;;;;;5.15;1.70;;;32.70;99.90;;;;;;12415301;28;20092;-87
2022/08/04 11:42:19;;;;;;;3.42;1.63;;;32.90;99.90;;;;;;12395875;28;20053;-87
2022/08/04 11:48:33;;;;;;;3.63;1.45;;;33.20;99.90;;;;;;12405124;28;20096;-86
2022/08/04 11:54:37;;;;;;;2.90;1.40;;;33.20;99.90;;;;;;12367282;28;20058;-86
2022/08/04 12:00:47;;;;;;;5.85;1.30;;;33.60;99.90;;;;;;12358711;28;20042;-87
2022/08/04 12:07:09;;;;;;;3.17;1.33;;;33.70;99.90;;;;;;12361222;28;20058;-86
2022/08/04 12:13:40;;;;;;;3.35;1.20;;;33.60;99.90;;;;;;12359448;28;20452;-85
2022/08/04 12:19:51;;;;;;;55.07;4.37;;;34.00;99.90;;;;;;12369235;28;20475;-86
2022/08/04 12:26:09;;;;;;;5.25;1.60;;;34.00;99.90;;;;;;12395772;28;20302;-86
2022/08/04 12:32:20;;;;;;;2.88;1.38;;;33.10;99.90;;;;;;12386860;28;20058;-86
2022/08/04 12:38:25;;;;;;;4.10;1.48;;;33.00;99.90;;;;;;12384629;28;20104;-86
2022/08/04 12:44:33;;;;;;;3.78;1.40;;;33.30;99.90;;;;;;12387046;28;20046;-86
2022/08/04 12:50:39;;;;;;;5.05;1.38;;;33.40;99.90;;;;;;12402784;28;20065;-87
2022/08/04 12:56:45;;;;;;;5.40;1.35;;;33.90;99.90;;;;;;12418022;28;20456;-86
2022/08/04 13:02:48;;;;;;;3.88;1.30;;;34.30;99.90;;;;;;12434538;28;20489;-86
2022/08/04 13:08:50;;;;;;;3.75;1.13;;;34.20;99.90;;;;;;12419744;28;20058;-87
2022/08/04 13:14:59;;;;;;;3.92;1.10;;;34.10;99.90;;;;;;12444234;28;20088;-86
2022/08/04 13:21:16;;;;;;;4.55;1.00;;;34.20;99.90;;;;;;12433880;28;20061;-87
2022/08/04 13:27:22;;;;;;;3.38;1.17;;;33.60;99.90;;;;;;12410299;28;20058;-86
2022/08/04 13:33:35;;;;;;;3.22;1.00;;;33.70;99.90;;;;;;12413750;28;20141;-85
2022/08/04 13:39:43;;;;;;;3.08;0.95;;;33.60;99.90;;;;;;12427378;28;20057;-86
2022/08/04 13:46:04;;;;;;;5.32;1.15;;;33.30;99.90;;;;;;12430237;28;20061;-87
2022/08/04 13:52:07;;;;;;;3.47;1.05;;;33.60;99.60;;;;;;12441725;28;20070;-86
2022/08/04 13:58:22;;;;;;;3.38;1.35;;;33.70;99.90;;;;;;12417180;28;20081;-86
2022/08/04 14:04:24;;;;;;;;;;;33.40;99.90;;;;;;12423859;28;20099;-85
2022/08/04 14:10:26;;;;;;;3.25;1.33;;;32.60;99.90;;;;;;12420369;28;19925;-85
2022/08/04 14:16:28;;;;;;;4.15;1.50;;;32.70;99.90;;;;;;12419439;28;20180;-86
2022/08/04 14:22:33;;;;;;;4.47;1.50;;;32.60;99.90;;;;;;12415160;28;20383;-86
2022/08/04 14:28:35;;;;;;;7.45;1.27;;;32.40;99.90;;;;;;12426397;28;20061;-86
2022/08/04 14:34:57;;;;;;;5.95;1.58;;;32.00;99.90;;;;;;12417323;28;20409;-86
2022/08/04 14:41:06;;;;;;;10.80;1.40;;;31.70;99.90;;;;;;12394093;28;20053;-85
2022/08/04 14:47:08;;;;;;;7.90;1.85;;;31.60;99.90;;;;;;12421494;28;20057;-86
2022/08/04 14:53:17;;;;;;;11.27;2.67;;;31.40;99.90;;;;;;12428159;28;20060;-86
2022/08/04 14:59:19;;;;;;;9.60;2.60;;;30.80;99.90;;;;;;12416250;28;20493;-86
2022/08/04 15:05:21;;;;;;;8.00;2.63;;;29.80;99.90;;;;;;12404843;28;20069;-85
2022/08/04 15:11:43;;;;;;;6.47;2.75;;;29.30;99.90;;;;;;12401795;28;20046;-85
2022/08/04 15:17:45;;;;;;;4.63;2.00;;;28.70;99.90;;;;;;12407717;28;20058;-85
2022/08/04 15:23:48;;;;;;;6.20;1.90;;;28.40;99.90;;;;;;12398502;28;20096;-85
2022/08/04 15:29:51;;;;;;;7.32;1.77;;;28.40;99.90;;;;;;12400350;28;20528;-85
2022/08/04 15:36:41;;;;;;;7.30;1.65;;;28.30;99.90;;;;;;12429451;28;20049;-86
2022/08/04 15:43:06;;;;;;;5.95;1.77;;;28.10;99.90;;;;;;12417671;28;20104;-86
2022/08/04 15:49:24;;;;;;;4.60;1.90;;;28.20;99.90;;;;;;12408005;28;20490;-86
2022/08/04 15:55:30;;;;;;;5.70;1.80;;;28.10;99.90;;;;;;12416494;28;20149;-85
2022/08/04 16:01:33;;;;;;;3.80;1.80;;;28.10;99.90;;;;;;12412322;28;20493;-86
2022/08/04 16:07:58;;;;;;;10.23;2.10;;;28.20;99.90;;;;;;12428903;28;20049;-87
2022/08/04 16:14:00;;;;;;;5.55;1.80;;;28.10;99.90;;;;;;12447119;28;20037;-86
2022/08/04 16:20:09;;;;;;;8.03;1.53;;;28.00;99.90;;;;;;12406466;28;20084;-85
2022/08/04 16:26:11;;;;;;;3.78;1.88;;;28.00;99.90;;;;;;12427108;28;20104;-86
2022/08/04 16:32:22;;;;;;;5.13;1.60;;;27.90;99.90;;;;;;12409749;28;20096;-85
2022/08/04 16:38:25;;;;;;;5.28;1.40;;;27.90;99.90;;;;;;12414082;28;20054;-87
2022/08/04 16:44:40;;;;;;;2.28;1.40;;;27.90;99.90;;;;;;12417614;28;20038;-86
2022/08/04 16:51:11;;;;;;;3.20;1.40;;;27.70;99.90;;;;;;12423311;28;20386;-86
2022/08/04 16:57:14;;;;;;;6.63;1.83;;;27.60;99.90;;;;;;12442378;28;20073;-86
2022/08/04 17:03:16;;;;;;;5.25;1.65;;;27.50;99.90;;;;;;12426588;28;20562;-86
2022/08/04 17:09:19;;;;;;;3.23;1.47;;;27.50;99.90;;;;;;12427049;28;20054;-86
2022/08/04 17:15:25;;;;;;;5.47;1.40;;;27.50;99.90;;;;;;12418184;28;20104;-86
2022/08/04 17:21:29;;;;;;;;;;;27.40;99.90;;;;;;12420567;28;20053;-86
2022/08/04 17:27:30;;;;;;;2.72;1.52;;;27.30;99.90;;;;;;12445191;28;19926;-87
2022/08/04 17:33:57;;;;;;;5.57;1.90;;;27.30;99.90;;;;;;12444854;28;20052;-86
2022/08/04 17:40:07;;;;;;;5.03;1.58;;;27.30;99.90;;;;;;12416931;28;20133;-86
2022/08/04 17:46:28;;;;;;;5.43;1.90;;;27.10;99.90;;;;;;12420811;28;20072;-86
2022/08/04 17:52:31;;;;;;;6.07;1.85;;;27.10;99.90;;;;;;12414031;28;20093;-86
2022/08/04 17:59:08;;;;;;;5.30;1.80;;;27.00;99.90;;;;;;12423209;28;20111;-85
2022/08/04 18:05:10;;;;;;;7.88;1.60;;;26.80;99.90;;;;;;12409690;28;20085;-86
2022/08/04 18:11:18;;;;;;;4.57;1.50;;;26.50;99.90;;;;;;12409614;28;20050;-86
2022/08/04 18:17:46;;;;;;;4.18;1.33;;;26.40;99.90;;;;;;12421399;28;20418;-85
2022/08/04 18:24:08;;;;;;;4.13;1.88;;;26.40;99.90;;;;;;12422502;28;20047;-86
2022/08/04 18:30:12;;;;;;;2.83;1.40;;;26.30;99.90;;;;;;12432142;28;20049;-85
2022/08/04 18:36:35;;;;;;;2.83;1.50;;;26.30;99.90;;;;;;12419939;28;20517;-85
2022/08/04 18:42:39;;;;;;;5.18;1.48;;;26.30;99.90;;;;;;12420632;28;20057;-85
2022/08/04 18:48:41;;;;;;;;;;;26.10;99.90;;;;;;12421683;28;20046;-86
2022/08/04 18:54:52;;;;;;;4.10;1.38;;;26.00;99.90;;;;;;12415906;28;19921;-85
2022/08/04 19:00:55;;;;;;;8.00;1.60;;;26.10;99.90;;;;;;12423786;28;20494;-85
2022/08/04 19:07:05;;;;;;;6.28;1.70;;;26.00;99.90;;;;;;12434598;28;20057;-85
2022/08/04 19:13:29;;;;;;;8.23;2.13;;;25.90;99.90;;;;;;12415749;28;20057;-87
2022/08/04 19:19:35;;;;;;;4.80;2.00;;;25.50;99.90;;;;;;12418979;28;20062;-86
2022/08/04 19:25:51;;;;;;;6.68;2.67;;;25.50;99.90;;;;;;12414469;28;20077;-85
2022/08/04 19:32:03;;;;;;;10.82;2.95;;;25.50;99.90;;;;;;12412792;28;20053;-86
2022/08/04 19:38:16;;;;;;;5.25;2.60;;;25.40;99.90;;;;;;12424064;28;20069;-86
2022/08/04 19:44:19;;;;;;;6.32;2.47;;;25.30;99.90;;;;;;12424207;28;20046;-86
2022/08/04 19:50:25;;;;;;;8.70;2.72;;;25.20;99.90;;;;;;12418018;28;20046;-86
2022/08/04 19:56:27;;;;;;;;;;;25.00;99.90;;;;;;12454872;28;20038;-86
2022/08/04 20:02:40;;;;;;;6.10;2.78;;;24.90;99.90;;;;;;12449491;28;19932;-85
2022/08/04 20:08:43;;;;;;;7.43;3.33;;;24.80;99.90;;;;;;12417369;28;20418;-85
2022/08/04 20:14:49;;;;;;;8.10;3.70;;;24.70;99.90;;;;;;12419986;28;20502;-85
2022/08/04 20:20:52;;;;;;;6.65;3.70;;;24.60;99.90;;;;;;12416174;28;20119;-85
2022/08/04 20:26:53;;;;;;;5.70;3.20;;;24.50;99.90;;;;;;12421163;28;20493;-85
2022/08/04 20:32:56;;;;;;;8.05;3.25;;;24.20;99.90;;;;;;12432905;28;20091;-86
2022/08/04 20:38:58;;;;;;;8.13;3.83;;;24.30;99.90;;;;;;12413053;28;20062;-86
2022/08/04 20:45:00;;;;;;;7.63;3.35;;;24.10;99.90;;;;;;12438287;28;20128;-86
2022/08/04 20:51:02;;;;;;;10.23;4.43;;;24.10;99.90;;;;;;12430260;28;20541;-86
2022/08/04 20:57:05;;;;;;;8.60;4.05;;;24.20;99.90;;;;;;12420295;28;20490;-86
2022/08/04 21:03:07;;;;;;;15.60;3.92;;;24.10;99.90;;;;;;12419885;28;20054;-86
2022/08/04 21:09:09;;;;;;;9.55;4.13;;;24.20;99.90;;;;;;12419284;28;20485;-85
2022/08/04 21:15:27;;;;;;;11.20;3.88;;;24.30;99.90;;;;;;12432532;28;20109;-86
2022/08/04 21:21:49;;;;;;;8.55;4.22;;;24.30;99.90;;;;;;12413795;28;20463;-85
2022/08/04 21:27:54;;;;;;;8.02;4.50;;;24.20;99.90;;;;;;12432367;28;20057;-86
2022/08/04 21:33:59;;;;;;;13.60;5.30;;;24.00;99.90;;;;;;12410745;28;20046;-86
2022/08/04 21:40:01;;;;;;;9.10;4.28;;;23.70;99.90;;;;;;12404679;28;20055;-85
2022/08/04 21:46:16;;;;;;;7.82;3.78;;;23.70;99.90;;;;;;12419836;28;20064;-86
2022/08/04 21:52:19;;;;;;;8.13;3.20;;;23.80;99.90;;;;;;12419656;28;20129;-85
2022/08/04 21:58:20;;;;;;;8.30;3.15;;;23.70;99.90;;;;;;12424349;28;20058;-85
2022/08/04 22:04:33;;;;;;;7.88;2.90;;;23.50;99.90;;;;;;12423807;28;20479;-85
2022/08/04 22:10:38;;;;;;;8.00;3.20;;;23.40;99.90;;;;;;12419815;28;20065;-85
2022/08/04 22:16:45;;;;;;;7.78;3.28;;;23.20;99.90;;;;;;12419471;28;20066;-84
2022/08/04 22:22:47;;;;;;;9.52;3.05;;;22.90;99.90;;;;;;12415446;28;20042;-85
2022/08/04 22:28:52;;;;;;;4.97;2.40;;;22.90;99.90;;;;;;12426038;28;20050;-85
2022/08/04 22:34:54;;;;;;;7.97;2.60;;;22.70;99.90;;;;;;12438551;28;20573;-84
2022/08/04 22:41:02;;;;;;;10.93;2.35;;;22.90;99.90;;;;;;12412733;28;20096;-84
2022/08/04 22:47:04;;;;;;;7.18;2.15;;;22.70;99.90;;;;;;12415054;28;20044;-84
2022/08/04 22:53:06;;;;;;;9.23;2.90;;;22.80;99.90;;;;;;12411098;28;20402;-84
2022/08/04 22:59:08;;;;;;;5.93;2.50;;;22.80;99.90;;;;;;12415472;28;20533;-84
2022/08/04 23:05:12;;;;;;;7.72;3.55;;;22.80;99.90;;;;;;12411647;28;20509;-85
2022/08/04 23:11:16;;;;;;;6.15;3.10;;;22.60;99.90;;;;;;12434723;28;20176;-84
2022/08/04 23:17:18;;;;;;;7.53;3.13;;;22.40;99.90;;;;;;12416194;28;20102;-85
2022/08/04 23:23:20;;;;;;;6.87;3.20;;;22.50;99.90;;;;;;12415255;28;20166;-84
2022/08/04 23:29:24;;;;;;;9.02;3.05;;;22.40;99.90;;;;;;12418049;28;20058;-84
2022/08/04 23:35:28;;;;;;;10.20;2.90;;;22.20;99.90;;;;;;12410478;28;20137;-84
2022/08/04 23:41:30;;;;;;;5.50;2.20;;;21.80;99.90;;;;;;12438381;28;20073;-85
2022/08/04 23:47:52;;;;;;;6.90;3.25;;;21.80;99.90;;;;;;12422724;28;20386;-84
2022/08/04 23:54:14;;;;;;;10.32;3.00;;;21.80;99.90;;;;;;12418963;28;20057;-84
